Time;durP1;ratioP1;P1;durP2;ratioP2;P2;SDS_P1;SDS_P2;PMS_P1;PMS_P2;Temp;Humidity;BMP_temperature;BMP_pressure;BME280_temperature;BME280_humidity;BME280_pressure;Samples;Min_cycle;Max_cycle;Signal;HPM_P1;HPM_P2
2023/01/24 00:05:53;;;;;;;26.73;13.73;;;;;;;1.83;100.00;101920.63;20970218;28;20528;-67
2023/01/24 00:15:55;;;;;;;25.27;12.90;;;;;;;1.88;100.00;101916.56;20969109;28;20451;-67
2023/01/24 00:25:56;;;;;;;24.15;11.90;;;;;;;1.96;100.00;101928.06;20968996;28;20364;-67
2023/01/24 00:35:57;;;;;;;23.00;11.10;;;;;;;2.15;100.00;101929.75;20977512;28;20040;-68
2023/01/24 00:45:59;;;;;;;25.38;11.65;;;;;;;2.19;100.00;101921.31;20983300;28;20045;-69
2023/01/24 00:56:00;;;;;;;20.30;10.00;;;;;;;2.21;100.00;101920.59;20983071;28;20047;-68
2023/01/24 01:06:01;;;;;;;19.83;10.27;;;;;;;2.29;100.00;101939.00;20982642;28;20102;-67
2023/01/24 01:16:02;;;;;;;24.63;11.57;;;;;;;2.14;100.00;101943.50;20981797;28;20048;-68
2023/01/24 01:26:04;;;;;;;22.05;10.98;;;;;;;2.15;100.00;101946.16;20980554;28;20044;-68
2023/01/24 01:36:05;;;;;;;22.38;11.07;;;;;;;1.96;100.00;101933.25;20979807;28;20045;-68
2023/01/24 01:46:06;;;;;;;28.33;12.57;;;;;;;1.97;100.00;101941.09;20978388;28;20204;-69
2023/01/24 01:56:08;;;;;;;26.15;12.57;;;;;;;1.88;100.00;101956.19;20978590;28;20459;-68
2023/01/24 02:06:09;;;;;;;26.05;12.68;;;;;;;1.92;100.00;101963.25;20973983;28;20114;-67
2023/01/24 02:16:10;;;;;;;23.23;11.95;;;;;;;1.91;100.00;101966.63;20976297;28;20068;-68
2023/01/24 02:26:11;;;;;;;23.80;11.73;;;;;;;2.04;100.00;101961.19;20975377;28;20049;-69
2023/01/24 02:36:13;;;;;;;23.20;11.73;;;;;;;2.07;100.00;101985.41;20975490;28;20098;-69
2023/01/24 02:46:14;;;;;;;23.95;12.68;;;;;;;2.09;100.00;101992.41;20974094;28;20488;-69
2023/01/24 03:06:37;;;;;;;23.15;11.45;;;;;;;2.13;100.00;101973.63;20950870;28;20307;-67
2023/01/24 03:39:53;;;;;;;17.23;9.50;;;;;;;2.23;100.00;101986.13;20970371;28;20455;-68
2023/01/24 03:47:39;;;;;;;19.20;9.00;;;;;;;2.29;100.00;101976.06;20970414;28;20113;-67
2023/01/24 03:57:40;;;;;;;19.58;10.13;;;;;;;2.25;100.00;101974.19;20970344;28;20055;-67
2023/01/24 04:07:41;;;;;;;19.25;9.68;;;;;;;2.29;100.00;101967.41;20973672;28;20509;-67
2023/01/24 04:17:43;;;;;;;21.15;9.60;;;;;;;2.33;100.00;101976.19;20985401;28;20412;-67
2023/01/24 04:27:44;;;;;;;18.65;8.90;;;;;;;2.25;100.00;101953.50;20985714;28;20102;-67
2023/01/24 04:37:45;;;;;;;17.70;9.18;;;;;;;2.22;100.00;101970.56;20983791;28;20091;-67
2023/01/24 04:47:47;;;;;;;22.90;11.32;;;;;;;2.17;100.00;101972.06;20983172;28;20068;-68
2023/01/24 04:57:48;;;;;;;22.92;10.68;;;;;;;2.03;100.00;101979.22;20982202;28;20474;-67
2023/01/24 05:07:49;;;;;;;22.05;11.23;;;;;;;1.89;100.00;101980.31;20981229;28;20068;-69
2023/01/24 05:17:50;;;;;;;25.58;11.43;;;;;;;1.92;100.00;101995.94;20981187;28;20048;-68
2023/01/24 05:27:52;;;;;;;26.45;12.60;;;;;;;1.92;100.00;101988.19;20980168;28;20485;-68
2023/01/24 05:37:53;;;;;;;22.73;10.63;;;;;;;1.92;100.00;102001.09;20979611;28;20125;-68
2023/01/24 05:47:54;;;;;;;24.67;12.70;;;;;;;1.89;100.00;102004.41;20979012;28;20053;-68
2023/01/24 05:57:55;;;;;;;23.30;11.93;;;;;;;2.05;100.00;102022.38;20977733;28;20051;-67
2023/01/24 06:07:57;;;;;;;25.40;10.68;;;;;;;2.02;100.00;102029.13;20976693;28;20519;-69
2023/01/24 06:17:58;;;;;;;21.92;10.00;;;;;;;1.92;100.00;102045.03;20976145;28;20052;-67
2023/01/24 06:27:59;;;;;;;24.67;11.02;;;;;;;2.01;100.00;102066.06;20971016;28;20550;-67
2023/01/24 06:38:00;;;;;;;21.90;10.82;;;;;;;1.97;100.00;102070.25;20975463;28;20053;-68
2023/01/24 06:48:01;;;;;;;21.95;9.80;;;;;;;1.99;100.00;102075.47;20974730;28;20064;-67
2023/01/24 06:58:04;;;;;;;21.95;10.27;;;;;;;1.94;100.00;102087.28;20973032;28;20477;-68
2023/01/24 07:08:05;;;;;;;19.90;10.13;;;;;;;1.84;100.00;102088.56;20971727;28;20819;-70
2023/01/24 07:18:06;;;;;;;22.00;10.50;;;;;;;1.86;100.00;102083.44;20972261;28;20045;-69
2023/01/24 07:28:07;;;;;;;21.55;10.02;;;;;;;1.89;100.00;102096.53;20971516;28;20229;-68
2023/01/24 07:38:09;;;;;;;26.38;11.85;;;;;;;1.89;100.00;102097.41;20972014;28;20052;-69
2023/01/24 07:48:10;;;;;;;21.52;10.85;;;;;;;1.94;100.00;102095.03;20985038;28;20072;-69
2023/01/24 07:58:11;;;;;;;22.90;10.23;;;;;;;1.93;100.00;102114.81;20970110;28;20052;-69
2023/01/24 08:08:12;;;;;;;21.55;11.20;;;;;;;1.93;100.00;102119.09;20970868;28;20076;-68
2023/01/24 08:18:14;;;;;;;25.73;10.98;;;;;;;2.02;100.00;102119.53;20963861;28;20483;-68
2023/01/24 08:28:15;;;;;;;23.77;11.43;;;;;;;2.03;100.00;102129.06;20983141;28;20052;-70
2023/01/24 08:38:16;;;;;;;25.92;11.27;;;;;;;2.04;100.00;102146.31;20982696;28;20057;-70
2023/01/24 08:48:17;;;;;;;21.75;11.05;;;;;;;2.11;100.00;102158.72;20984186;28;20113;-70
2023/01/24 08:58:20;;;;;;;26.65;11.70;;;;;;;2.09;100.00;102157.75;20982799;28;20052;-70
2023/01/24 09:08:22;;;;;;;25.02;11.55;;;;;;;2.22;100.00;102154.03;20981578;28;20413;-69
2023/01/24 09:18:23;;;;;;;25.10;12.00;;;;;;;2.22;100.00;102173.03;20981342;28;20685;-70
2023/01/24 09:28:24;;;;;;;27.73;13.02;;;;;;;2.26;100.00;102192.16;20988381;28;20056;-70
2023/01/24 09:38:27;;;;;;;27.85;12.70;;;;;;;2.30;100.00;102194.94;20983955;28;20117;-70
2023/01/24 09:48:28;;;;;;;37.13;15.98;;;;;;;2.33;100.00;102188.13;20979772;28;20184;-70
2023/01/24 09:58:31;;;;;;;30.25;13.70;;;;;;;2.51;100.00;102197.63;20980143;28;20125;-70
2023/01/24 10:08:32;;;;;;;32.35;13.93;;;;;;;2.46;100.00;102185.31;20971871;28;20056;-70
2023/01/24 10:18:34;;;;;;;29.52;13.98;;;;;;;2.56;100.00;102182.31;20976519;28;20106;-69
2023/01/24 10:28:35;;;;;;;29.90;13.95;;;;;;;2.63;100.00;102174.00;20975827;28;20548;-70
2023/01/24 10:38:36;;;;;;;25.40;12.80;;;;;;;2.74;100.00;102177.97;20976392;28;20056;-70
2023/01/24 10:48:37;;;;;;;30.88;13.68;;;;;;;2.71;100.00;102154.56;20974136;28;20052;-69
2023/01/24 10:58:39;;;;;;;28.30;13.38;;;;;;;2.86;100.00;102162.09;20971228;28;20114;-69
2023/01/24 11:08:40;;;;;;;26.95;13.30;;;;;;;2.83;100.00;102157.69;20973486;28;20068;-69
2023/01/24 11:18:41;;;;;;;30.85;13.45;;;;;;;2.96;100.00;102158.22;20972758;28;20515;-69
2023/01/24 11:28:42;;;;;;;29.10;13.98;;;;;;;3.14;100.00;102160.72;20971778;28;20592;-69
2023/01/24 11:38:45;;;;;;;28.25;13.30;;;;;;;3.11;100.00;102158.88;20972147;28;20070;-69
2023/01/24 11:48:46;;;;;;;26.65;13.27;;;;;;;2.98;100.00;102141.94;20970978;28;20101;-69
2023/01/24 11:58:47;;;;;;;25.20;12.95;;;;;;;3.17;100.00;102146.22;20969171;28;20063;-68
2023/01/24 12:08:50;;;;;;;31.58;14.15;;;;;;;3.20;100.00;102148.91;20971445;28;20072;-69
2023/01/24 12:18:51;;;;;;;28.95;13.85;;;;;;;3.06;100.00;102116.38;20969778;28;20493;-69
2023/01/24 12:28:52;;;;;;;28.83;13.15;;;;;;;3.15;100.00;102118.47;20976774;28;20079;-69
2023/01/24 12:38:55;;;;;;;28.42;12.10;;;;;;;3.01;100.00;102110.13;20989978;28;20048;-68
2023/01/24 12:48:56;;;;;;;25.88;12.95;;;;;;;3.05;100.00;102109.44;20984979;28;20053;-69
2023/01/24 12:59:02;;;;;;;27.50;12.40;;;;;;;3.04;100.00;102098.22;20982013;28;20040;-69
2023/01/24 13:09:03;;;;;;;23.45;10.85;;;;;;;2.91;100.00;102106.28;20980400;28;20090;-69
2023/01/24 13:19:04;;;;;;;28.48;13.48;;;;;;;2.97;100.00;102101.38;20976554;28;20049;-69
2023/01/24 13:29:08;;;;;;;26.42;11.52;;;;;;;2.98;100.00;102103.13;20973668;28;20106;-69
2023/01/24 13:39:09;;;;;;;23.60;10.67;;;;;;;2.89;100.00;102099.28;20975105;28;20060;-70
2023/01/24 13:49:10;;;;;;;25.20;11.57;;;;;;;2.93;100.00;102106.34;20974807;28;20512;-68
2023/01/24 13:59:11;;;;;;;24.83;12.10;;;;;;;2.73;100.00;102108.97;20973085;28;20048;-68
2023/01/24 14:09:13;;;;;;;21.90;10.73;;;;;;;2.68;100.00;102110.44;20968737;28;20573;-68
2023/01/24 14:19:14;;;;;;;23.95;11.52;;;;;;;2.54;100.00;102106.41;20968186;28;20079;-68
2023/01/24 14:29:15;;;;;;;23.80;11.70;;;;;;;2.57;100.00;102114.28;20967123;28;20056;-68
2023/01/24 14:39:17;;;;;;;25.30;11.90;;;;;;;2.60;100.00;102104.06;20966433;28;20517;-68
2023/01/24 14:49:18;;;;;;;22.40;11.38;;;;;;;2.50;100.00;102114.84;20971069;28;20083;-68
2023/01/24 14:59:19;;;;;;;28.40;12.48;;;;;;;2.49;100.00;102121.72;20968852;28;20072;-68
2023/01/24 15:09:20;;;;;;;24.75;10.80;;;;;;;2.58;100.00;102131.53;20969886;28;20073;-68
2023/01/24 15:19:21;;;;;;;26.92;11.43;;;;;;;2.45;100.00;102126.66;20969005;28;20044;-68
2023/01/24 15:29:23;;;;;;;21.55;10.57;;;;;;;2.39;100.00;102141.88;20961188;28;20056;-68
2023/01/24 15:39:24;;;;;;;23.70;11.65;;;;;;;2.43;100.00;102139.50;20968433;28;20068;-68
2023/01/24 15:49:25;;;;;;;22.38;11.65;;;;;;;2.40;100.00;102138.50;20966708;28;20076;-68
2023/01/24 15:59:34;;;;;;;22.77;10.65;;;;;;;2.33;100.00;102146.78;20966726;28;20052;-68
2023/01/24 16:09:36;;;;;;;25.05;11.52;;;;;;;2.35;100.00;102151.22;20984820;28;20048;-68
2023/01/24 16:19:37;;;;;;;22.88;10.88;;;;;;;2.37;100.00;102167.66;20984399;28;20095;-68
2023/01/24 16:29:38;;;;;;;26.45;11.63;;;;;;;2.30;100.00;102170.81;20983912;28;20063;-68
2023/01/24 16:39:40;;;;;;;25.48;12.05;;;;;;;2.44;100.00;102172.28;20983389;28;20059;-68
2023/01/24 16:49:41;;;;;;;25.00;12.00;;;;;;;2.26;100.00;102179.22;20983281;28;20493;-68
2023/01/24 16:59:43;;;;;;;25.30;12.75;;;;;;;2.31;100.00;102180.31;20982454;28;20425;-68
2023/01/24 17:09:44;;;;;;;27.10;13.65;;;;;;;2.43;100.00;102185.16;20975580;28;20087;-68
2023/01/24 17:19:45;;;;;;;24.65;12.38;;;;;;;2.32;100.00;102197.59;20977832;28;20052;-68
2023/01/24 17:29:47;;;;;;;28.38;13.75;;;;;;;2.35;100.00;102207.16;20976856;28;20106;-68
2023/01/24 17:39:49;;;;;;;26.90;13.10;;;;;;;2.38;100.00;102209.91;20975646;28;20044;-68
2023/01/24 17:49:50;;;;;;;25.90;12.48;;;;;;;2.43;100.00;102205.84;20972836;28;20075;-68
2023/01/24 17:59:51;;;;;;;29.80;14.32;;;;;;;2.49;100.00;102211.28;20976034;28;20413;-69
2023/01/24 18:09:52;;;;;;;30.50;15.60;;;;;;;2.51;100.00;102214.84;20974172;28;20075;-68
2023/01/24 18:19:54;;;;;;;38.03;17.50;;;;;;;2.48;100.00;102214.69;20969482;28;20048;-68
2023/01/24 18:29:58;;;;;;;33.00;15.50;;;;;;;2.38;100.00;102207.31;20969744;28;20049;-69
2023/01/24 18:39:59;;;;;;;29.48;15.98;;;;;;;2.31;100.00;102212.22;20971003;28;20522;-69
2023/01/24 18:50:00;;;;;;;31.60;16.15;;;;;;;2.35;100.00;102212.34;20962475;28;20440;-68
2023/01/24 19:00:02;;;;;;;31.17;15.88;;;;;;;2.33;100.00;102193.31;20966580;28;20072;-68
2023/01/24 19:10:04;;;;;;;26.48;12.65;;;;;;;2.44;100.00;102197.25;20967234;28;20535;-68
2023/01/24 19:20:06;;;;;;;23.45;11.25;;;;;;;2.34;100.00;102208.00;20967394;28;20048;-68
2023/01/24 19:30:07;;;;;;;22.25;10.93;;;;;;;2.44;100.00;102205.00;20967848;28;20065;-68
2023/01/24 19:40:09;;;;;;;21.55;10.55;;;;;;;2.43;100.00;102198.06;20968868;28;20048;-69
2023/01/24 19:50:10;;;;;;;22.17;11.75;;;;;;;2.36;100.00;102198.63;20967722;28;20079;-68
2023/01/24 20:00:11;;;;;;;23.00;11.07;;;;;;;2.30;100.00;102189.78;20966960;28;20476;-68
2023/01/24 20:10:13;;;;;;;22.27;10.73;;;;;;;2.28;100.00;102185.34;20967120;28;20442;-68
2023/01/24 20:20:14;;;;;;;21.83;10.20;;;;;;;2.23;100.00;102202.31;20966450;28;20127;-68
2023/01/24 20:30:16;;;;;;;21.00;10.40;;;;;;;2.26;100.00;102197.31;20962406;28;20091;-67
2023/01/24 20:40:17;;;;;;;22.98;11.68;;;;;;;2.31;100.00;102198.41;20964893;28;20867;-68
2023/01/24 20:50:18;;;;;;;16.83;8.90;;;;;;;2.19;100.00;102214.22;20968802;28;20545;-68
2023/01/24 21:00:19;;;;;;;18.55;9.90;;;;;;;2.29;100.00;102213.81;20978800;28;20094;-68
2023/01/24 21:10:21;;;;;;;21.45;10.57;;;;;;;2.36;100.00;102208.97;20977160;28;20082;-68
2023/01/24 21:20:23;;;;;;;22.05;9.88;;;;;;;2.35;100.00;102207.16;20976911;28;20099;-68
2023/01/24 21:30:25;;;;;;;19.52;10.05;;;;;;;2.28;100.00;102200.84;20977404;28;20060;-68
2023/01/24 21:40:26;;;;;;;18.13;8.88;;;;;;;2.26;100.00;102198.19;20977993;28;20489;-68
2023/01/24 21:50:27;;;;;;;20.83;10.45;;;;;;;2.26;100.00;102197.31;20975433;28;20504;-68
2023/01/24 22:00:28;;;;;;;18.80;9.60;;;;;;;2.19;100.00;102198.69;20975205;28;20531;-68
2023/01/24 22:10:30;;;;;;;21.73;10.45;;;;;;;2.17;100.00;102196.88;20973816;28;20048;-68
2023/01/24 22:20:31;;;;;;;21.83;10.80;;;;;;;2.24;100.00;102188.59;20973941;28;20052;-67
2023/01/24 22:30:33;;;;;;;20.92;10.88;;;;;;;2.19;100.00;102190.94;20972534;28;20051;-69
2023/01/24 22:40:34;;;;;;;25.88;10.65;;;;;;;2.20;100.00;102181.50;20973310;28;20060;-67
2023/01/24 22:50:35;;;;;;;21.83;11.05;;;;;;;2.27;100.00;102174.13;20972424;28;20496;-67
2023/01/24 23:00:37;;;;;;;21.60;10.93;;;;;;;2.17;100.00;102171.03;20969919;28;20048;-66
2023/01/24 23:10:39;;;;;;;22.13;11.20;;;;;;;2.17;100.00;102161.59;20972008;28;20474;-66
2023/01/24 23:31:00;;;;;;;21.52;11.80;;;;;;;2.23;100.00;102161.84;20970158;28;20496;-68
2023/01/24 23:41:01;;;;;;;22.85;11.05;;;;;;;2.09;100.00;102154.28;20973400;28;20451;-68
2023/01/24 23:51:03;;;;;;;23.23;12.07;;;;;;;2.16;100.00;102143.44;20971634;28;20045;-68
